Time;durP1;ratioP1;P1;durP2;ratioP2;P2;SDS_P1;SDS_P2;PMS_P1;PMS_P2;Temp;Humidity;BMP_temperature;BMP_pressure;BME280_temperature;BME280_humidity;BME280_pressure;Samples;Min_cycle;Max_cycle;Signal;HPM_P1;HPM_P2
2023/09/11 02:24:43;;;;;;;;;;;9.60;95.80;;;;;;5124885;27;20257;-92
2023/09/11 02:27:08;;;;;;;;;;;9.40;96.50;;;;;;5090464;28;19999;-93
2023/09/11 18:54:07;;;;;;;;;;;14.40;81.00;;;;;;5129220;27;19919;-92
2023/09/11 18:56:33;;;;;;;;;;;14.10;81.90;;;;;;5105705;28;19919;-90
2023/09/11 18:58:59;;;;;;;;;;;14.10;82.80;;;;;;5099921;28;19918;-90
2023/09/11 19:01:24;;;;;;;;;;;14.10;83.70;;;;;;5102509;28;19916;-92
2023/09/11 19:14:00;;;;;;;;;;;14.10;83.60;;;;;;5049391;28;19929;-91
2023/09/11 19:16:25;;;;;;;;;;;14.00;84.40;;;;;;5044231;28;19992;-92
2023/09/11 19:18:52;;;;;;;;;;;14.10;85.10;;;;;;5029816;28;19960;-92
2023/09/11 19:21:19;;;;;;;;;;;14.00;85.60;;;;;;5029586;28;20278;-93
2023/09/11 19:23:46;;;;;;;;;;;14.10;86.30;;;;;;5026780;28;20385;-93
2023/09/11 19:26:12;;;;;;;;;;;14.10;86.80;;;;;;5014111;28;20031;-92
2023/09/11 19:28:38;;;;;;;;;;;14.20;87.10;;;;;;5017386;28;19963;-92
2023/09/11 19:31:04;;;;;;;;;;;14.20;87.40;;;;;;5018932;28;19917;-93
2023/09/11 19:33:32;;;;;;;;;;;14.20;87.70;;;;;;5026217;28;20366;-93
2023/09/11 19:35:58;;;;;;;;;;;14.20;87.90;;;;;;5024983;28;20302;-92
2023/09/11 19:38:24;;;;;;;;;;;14.20;88.10;;;;;;5026503;28;19941;-93
2023/09/11 19:40:50;;;;;;;;;;;14.20;88.40;;;;;;5029837;28;19909;-91
2023/09/11 19:43:16;;;;;;;;;;;14.20;88.60;;;;;;5021949;28;19913;-93
2023/09/11 19:45:42;;;;;;;;;;;14.20;88.80;;;;;;5013100;28;19966;-92
2023/09/11 19:48:09;;;;;;;;;;;14.30;89.00;;;;;;5030926;28;20007;-93
2023/09/11 19:50:35;;;;;;;;;;;14.30;89.10;;;;;;5028222;28;19917;-92
2023/09/11 19:53:01;;;;;;;;;;;14.30;89.30;;;;;;5012955;28;19921;-93
2023/09/11 19:55:26;;;;;;;;;;;14.20;89.40;;;;;;5013289;28;19909;-93
2023/09/11 19:57:52;;;;;;;;;;;14.20;89.60;;;;;;5029459;28;20337;-92
2023/09/11 20:00:17;;;;;;;;;;;14.20;89.70;;;;;;5013052;28;19960;-92
2023/09/11 20:02:43;;;;;;;;;;;14.20;90.00;;;;;;5014223;28;19949;-94
2023/09/11 20:05:09;;;;;;;;;;;14.20;90.00;;;;;;5013317;28;19967;-94
2023/09/11 20:07:34;;;;;;;;;;;14.10;90.00;;;;;;5013024;28;19909;-93
2023/09/11 20:10:03;;;;;;;;;;;14.10;90.10;;;;;;5030709;28;19975;-93
2023/09/11 20:12:31;;;;;;;;;;;14.10;90.20;;;;;;5017226;28;19925;-92
2023/09/11 20:14:59;;;;;;;;;;;14.10;90.20;;;;;;5045940;28;19910;-93
2023/09/11 20:17:27;;;;;;;;;;;14.10;90.30;;;;;;5020154;28;19913;-93
2023/09/11 20:19:52;;;;;;;;;;;14.00;90.30;;;;;;5033268;28;19917;-93
2023/09/11 20:22:18;;;;;;;;;;;14.00;90.40;;;;;;5012706;28;20425;-92
2023/09/11 20:24:43;;;;;;;;;;;14.00;90.40;;;;;;4997449;28;20016;-92
2023/09/11 20:27:09;;;;;;;;;;;13.90;90.50;;;;;;4987467;28;19917;-93
2023/09/11 20:29:34;;;;;;;;;;;13.90;90.50;;;;;;4997707;28;19914;-92
2023/09/11 20:32:00;;;;;;;;;;;13.90;90.80;;;;;;5008383;28;20371;-93
2023/09/11 20:34:25;;;;;;;;;;;13.90;90.70;;;;;;4999404;28;19999;-93
2023/09/11 20:36:51;;;;;;;;;;;13.90;90.70;;;;;;4999348;28;19917;-93
2023/09/11 20:39:16;;;;;;;;;;;13.80;90.70;;;;;;5016809;28;20020;-93
2023/09/11 20:41:42;;;;;;;;;;;13.80;90.80;;;;;;5002755;28;19920;-93
2023/09/11 20:44:07;;;;;;;;;;;13.80;90.90;;;;;;5013293;28;19910;-92
2023/09/11 20:46:32;;;;;;;;;;;13.70;91.00;;;;;;4999234;28;20247;-92
2023/09/11 20:48:58;;;;;;;;;;;13.70;91.00;;;;;;4999145;28;19909;-93
2023/09/11 20:51:23;;;;;;;;;;;13.70;91.10;;;;;;4999152;28;20290;-93
2023/09/11 20:53:49;;;;;;;;;;;13.70;91.10;;;;;;4999134;28;19917;-95
2023/09/11 20:56:14;;;;;;;;;;;13.60;91.10;;;;;;4998958;28;20345;-93
2023/09/11 20:58:40;;;;;;;;;;;13.60;91.10;;;;;;4987638;28;19917;-93
2023/09/11 21:01:07;;;;;;;;;;;13.60;91.20;;;;;;5011000;28;19917;-93
2023/09/11 21:03:32;;;;;;;;;;;13.50;91.30;;;;;;4999131;28;20348;-92
2023/09/11 21:05:58;;;;;;;;;;;13.50;91.40;;;;;;5011115;28;20008;-94
2023/09/11 21:08:23;;;;;;;;;;;13.50;91.50;;;;;;5002249;28;19953;-91
2023/09/11 21:10:49;;;;;;;;;;;13.40;91.50;;;;;;4997677;28;19924;-91
2023/09/11 21:13:15;;;;;;;;;;;13.40;91.50;;;;;;4997201;28;19930;-94
2023/09/11 21:15:40;;;;;;;;;;;13.40;91.60;;;;;;4999348;28;19913;-92
